Superfast Levante — 5BCB4 — position and weather

sailwx.info

Track history (hours):
 
Tides and Currents Weather Stations Pressure Air Temp Water Temp Dewpoint Dewpoint Depression Visibility Wind Speed Wind Dir Waves Ship Positions

Superfast Levante

Last reported at 2018-Jan-12 14:59 UTC. Time now 2018-Jan-23 00:22 UTC.
Position N 39°34' E 002°38'.
Warning: this ship's position is 10 days out of date.

Length 158 m; draft 5.6 m.

Type: Ship. MMSI: 212324000.

Date/timePositionNaut miles runAvg speedWind from/ knotsBaromVisibWave heightAir tempDewpointWater temp
2018-Jan-12 14:59N 39°34' E 002°38'0 0.0
2018-Jan-12 14:29N 39°34' E 002°38'0 0.0
2018-Jan-12 13:59N 39°34' E 002°38'0 0.0
2018-Jan-12 13:29N 39°34' E 002°38'0 0.0
2018-Jan-12 12:59N 39°34' E 002°38'0 0.0
2018-Jan-12 12:29N 39°34' E 002°38'0 0.0
2018-Jan-12 11:59N 39°34' E 002°38'0 0.0
2018-Jan-12 11:29N 39°34' E 002°38'0 0.0
2018-Jan-12 10:59N 39°34' E 002°38'0 0.0
2018-Jan-12 10:29N 39°34' E 002°38'0 0.0
2018-Jan-12 09:59N 39°34' E 002°38'0 0.0
2018-Jan-12 09:29N 39°34' E 002°38'0 0.0
2018-Jan-12 08:59N 39°34' E 002°38'0 0.0
2018-Jan-12 08:29N 39°34' E 002°38'0 0.0
2018-Jan-12 07:59N 39°34' E 002°38'0 0.0
2018-Jan-12 07:29N 39°34' E 002°38'0 0.0
2018-Jan-12 06:59N 39°34' E 002°38'0 0.0
2018-Jan-12 06:29N 39°34' E 002°38'1 3.1
2018-Jan-12 06:00N 39°32' E 002°38'612.6
2018-Jan-12 05:30N 39°27' E 002°33'611.9
2018-Jan-12 05:01N 39°25' E 002°26'3 0.1
2018-Jan-10 20:17N 39°25' E 002°23'412.3
2018-Jan-10 20:00N 39°25' E 002°27'612.1
2018-Jan-10 19:30N 39°26' E 002°35'612.3
2018-Jan-10 19:00N 39°32' E 002°38'1 2.8
2018-Jan-10 18:30N 39°34' E 002°38'0 0.0
2018-Jan-10 18:00N 39°34' E 002°38'0 0.0
2018-Jan-10 17:30N 39°34' E 002°38'0 0.0
2018-Jan-10 17:00N 39°34' E 002°38'0 0.0
2018-Jan-10 16:30N 39°34' E 002°38'0 0.0
2018-Jan-10 16:00N 39°34' E 002°38'0 0.0
2018-Jan-10 15:27N 39°34' E 002°38'0 0.0
2018-Jan-10 15:00N 39°34' E 002°38'0 0.0
2018-Jan-10 14:30N 39°34' E 002°38'0 0.0
2018-Jan-10 14:00N 39°34' E 002°38'0 0.0
2018-Jan-10 13:30N 39°34' E 002°38'0 0.0
2018-Jan-10 13:00N 39°34' E 002°38'0 0.0
2018-Jan-10 12:30N 39°34' E 002°38'0 0.0
2018-Jan-10 12:00N 39°34' E 002°38'0 0.0
2018-Jan-10 11:30N 39°34' E 002°38'0 0.0
2018-Jan-10 11:00N 39°34' E 002°38'0 0.0
2018-Jan-10 10:30N 39°34' E 002°38'0 0.0
2018-Jan-10 09:57N 39°34' E 002°38'0 0.0
2018-Jan-10 09:30N 39°34' E 002°38'0 0.0
2018-Jan-10 09:00N 39°34' E 002°38'0 0.0
2018-Jan-10 08:30N 39°34' E 002°38'0 0.0
2018-Jan-10 08:00N 39°34' E 002°38'0 0.0
2018-Jan-10 07:30N 39°34' E 002°38'0 0.0
2018-Jan-10 07:00N 39°34' E 002°38'0 0.0
2018-Jan-10 06:30N 39°34' E 002°38'1 3.0
2018-Jan-10 06:00N 39°32' E 002°38'612.0
2018-Jan-10 05:30N 39°27' E 002°34'611.6
2018-Jan-10 05:00N 39°26' E 002°26'62 1.5
2018-Jan-08 12:00N 38°48' E 001°22'5 8.3
2018-Jan-08 11:26N 38°52' E 001°27'3 2.0
2018-Jan-08 09:52N 38°55' E 001°26'1 0.3
2018-Jan-08 06:06N 38°54' E 001°27'2 7.9
2018-Jan-08 05:54N 38°54' E 001°29'4 8.8
2018-Jan-08 05:30N 38°56' E 001°34'5 9.6
2018-Jan-08 05:00N 38°58' E 001°39'41 6.0
2018-Jan-07 22:13N 39°20' E 002°23'2 5.9
2018-Jan-07 21:57N 39°21' E 002°24'3 5.9
2018-Jan-07 21:30N 39°22' E 002°27'3 6.0
2018-Jan-07 21:00N 39°24' E 002°30'3 5.9
2018-Jan-07 20:30N 39°26' E 002°33'3 6.0
2018-Jan-07 20:00N 39°29' E 002°35'3 6.1
2018-Jan-07 19:30N 39°31' E 002°37'3 4.9
2018-Jan-07 18:59N 39°34' E 002°38'0 0.0
2018-Jan-07 18:30N 39°34' E 002°38'0 0.0
2018-Jan-07 17:59N 39°34' E 002°38'0 0.0
2018-Jan-07 17:29N 39°34' E 002°38'0 0.0
2018-Jan-07 17:00N 39°34' E 002°38'0 0.0
2018-Jan-07 16:29N 39°34' E 002°38'0 0.0
2018-Jan-07 16:00N 39°34' E 002°38'0 0.0
2018-Jan-07 15:30N 39°34' E 002°38'0 0.0
2018-Jan-07 14:59N 39°34' E 002°38'0 0.0
2018-Jan-07 14:29N 39°34' E 002°38'0 0.0
2018-Jan-07 13:59N 39°34' E 002°38'0 0.0
2018-Jan-07 13:29N 39°34' E 002°38'0 0.0
2018-Jan-07 13:00N 39°34' E 002°38'0 0.0
2018-Jan-07 12:30N 39°34' E 002°38'0 0.0
2018-Jan-07 12:00N 39°34' E 002°38'0 0.0
2018-Jan-07 11:30N 39°34' E 002°38'0 0.0
2018-Jan-07 10:57N 39°34' E 002°38'0 0.0
2018-Jan-07 10:30N 39°34' E 002°38'0 0.0
2018-Jan-07 09:59N 39°34' E 002°38'0 0.0
2018-Jan-07 09:29N 39°34' E 002°38'0 0.0
2018-Jan-07 08:59N 39°34' E 002°38'0 0.0
2018-Jan-07 08:30N 39°34' E 002°38'0 0.0
2018-Jan-07 08:00N 39°34' E 002°38'0 0.0
2018-Jan-07 07:29N 39°34' E 002°38'0 0.0
2018-Jan-07 07:00N 39°34' E 002°38'0 0.0
2018-Jan-07 06:30N 39°34' E 002°38'1 2.3
2018-Jan-07 06:00N 39°33' E 002°39'1 1.7
2018-Jan-07 05:30N 39°33' E 002°40'0 0.1
2018-Jan-07 05:00N 39°33' E 002°40'0 0.0
2018-Jan-07 04:30N 39°33' E 002°40'0 0.0
2018-Jan-07 04:00N 39°33' E 002°40'0 0.1
2018-Jan-07 03:30N 39°33' E 002°40'0 0.1
2018-Jan-07 03:00N 39°33' E 002°40'0 0.0
2018-Jan-07 02:30N 39°33' E 002°40'0 0.0
2018-Jan-07 02:00N 39°33' E 002°40'0 0.0
2018-Jan-07 01:27N 39°33' E 002°40'0 0.0
2018-Jan-07 00:30N 39°33' E 002°40'0 0.1
2018-Jan-07 00:00N 39°33' E 002°40'0 0.1
2018-Jan-06 23:30N 39°33' E 002°40'0 0.0
2018-Jan-06 23:00N 39°33' E 002°40'0 0.0
2018-Jan-06 22:30N 39°33' E 002°40'0 0.0
2018-Jan-06 22:00N 39°33' E 002°40'0 0.0
2018-Jan-06 21:30N 39°33' E 002°40'0 0.0
2018-Jan-06 21:00N 39°33' E 002°40'0 0.0
2018-Jan-06 20:30N 39°33' E 002°40'0 0.0
2018-Jan-06 20:00N 39°33' E 002°40'0 0.0
2018-Jan-06 19:30N 39°33' E 002°40'0 0.0
2018-Jan-06 19:00N 39°33' E 002°40'0 0.0
2018-Jan-06 18:30N 39°33' E 002°40'0 0.1
2018-Jan-06 18:00N 39°33' E 002°40'0 0.0
2018-Jan-06 17:30N 39°33' E 002°40'0 0.0
2018-Jan-06 17:00N 39°33' E 002°40'0 0.0
2018-Jan-06 16:30N 39°33' E 002°40'0 0.0
2018-Jan-06 16:00N 39°33' E 002°40'0 0.0
2018-Jan-06 15:30N 39°33' E 002°40'0 0.0
2018-Jan-06 15:00N 39°33' E 002°40'0 0.0
2018-Jan-06 14:30N 39°33' E 002°40'0 0.0
2018-Jan-06 14:00N 39°33' E 002°40'0 0.0
2018-Jan-06 13:30N 39°33' E 002°40'0 0.0
2018-Jan-06 13:00N 39°33' E 002°40'0 0.0
2018-Jan-06 12:30N 39°33' E 002°40'0 0.0
2018-Jan-06 12:00N 39°33' E 002°40'0 0.0
2018-Jan-06 11:30N 39°33' E 002°40'0 0.0
2018-Jan-06 11:00N 39°33' E 002°40'0 0.0
2018-Jan-06 10:30N 39°33' E 002°40'1 2.6
2018-Jan-06 10:00N 39°32' E 002°39'510.4
2018-Jan-06 09:30N 39°28' E 002°35'4 8.0
2018-Jan-06 09:00N 39°25' E 002°31'5 9.1
2018-Jan-06 08:30N 39°26' E 002°25'5 8.9
2018-Jan-06 08:00N 39°26' E 002°19'1 0.0
2018-Jan-04 20:14N 39°25' E 002°20'313.0
2018-Jan-04 20:00N 39°25' E 002°24'612.4
2018-Jan-04 19:30N 39°26' E 002°32'612.9
2018-Jan-04 19:00N 39°31' E 002°37'3 5.0
2018-Jan-04 18:28N 39°34' E 002°38'0 0.0
2018-Jan-04 17:58N 39°34' E 002°38'0 0.0
2018-Jan-04 17:28N 39°34' E 002°38'0 0.0
2018-Jan-04 16:58N 39°34' E 002°38'0 0.0
2018-Jan-04 16:29N 39°34' E 002°38'0 0.0
2018-Jan-04 15:59N 39°34' E 002°38'0 0.0
2018-Jan-04 15:29N 39°34' E 002°38'0 0.0
2018-Jan-04 14:58N 39°34' E 002°38'0 0.0
2018-Jan-04 14:28N 39°34' E 002°38'0 0.0
2018-Jan-04 13:59N 39°34' E 002°38'0 0.0
2018-Jan-04 13:28N 39°34' E 002°38'0 0.0
2018-Jan-04 12:58N 39°34' E 002°38'0 0.0
2018-Jan-04 12:29N 39°34' E 002°38'0 0.0
2018-Jan-04 11:58N 39°34' E 002°38'0 0.0
2018-Jan-04 11:28N 39°34' E 002°38'0 0.0
2018-Jan-04 10:59N 39°34' E 002°38'0 0.0
2018-Jan-04 10:29N 39°34' E 002°38'0 0.0
2018-Jan-04 09:58N 39°34' E 002°38'0 0.0
2018-Jan-04 09:29N 39°34' E 002°38'0 0.0
2018-Jan-04 08:58N 39°34' E 002°38'0 0.0
2018-Jan-04 08:28N 39°34' E 002°38'0 0.0
2018-Jan-04 07:59N 39°34' E 002°38'0 0.0
2018-Jan-04 07:29N 39°34' E 002°38'0 0.0
2018-Jan-04 06:59N 39°34' E 002°38'0 0.0
2018-Jan-04 06:29N 39°34' E 002°38'1 2.7
2018-Jan-04 06:01N 39°32' E 002°38'611.7
2018-Jan-04 05:31N 39°28' E 002°34'610.8
2018-Jan-04 04:59N 39°25' E 002°27'712.3
2018-Jan-04 04:24N 39°25' E 002°18'  
Track history (hours):
 
Tides and Currents Weather Stations Pressure Air Temp Water Temp Dewpoint Dewpoint Depression Visibility Wind Speed Wind Dir Waves Ship Positions

Superfast Levante

Last reported at 2018-Jan-12 14:59 UTC. Time now 2018-Jan-23 00:22 UTC.
Position N 39°34' E 002°38'.
Warning: this ship's position is 10 days out of date.

Length 158 m; draft 5.6 m.

Type: Ship. MMSI: 212324000.

Date/timePositionNaut miles runAvg speedWind from/ knotsBaromVisibWave heightAir tempDewpointWater temp
2018-Jan-12 14:59N 39°34' E 002°38'0 0.0
2018-Jan-12 14:29N 39°34' E 002°38'0 0.0
2018-Jan-12 13:59N 39°34' E 002°38'0 0.0
2018-Jan-12 13:29N 39°34' E 002°38'0 0.0
2018-Jan-12 12:59N 39°34' E 002°38'0 0.0
2018-Jan-12 12:29N 39°34' E 002°38'0 0.0
2018-Jan-12 11:59N 39°34' E 002°38'0 0.0
2018-Jan-12 11:29N 39°34' E 002°38'0 0.0
2018-Jan-12 10:59N 39°34' E 002°38'0 0.0
2018-Jan-12 10:29N 39°34' E 002°38'0 0.0
2018-Jan-12 09:59N 39°34' E 002°38'0 0.0
2018-Jan-12 09:29N 39°34' E 002°38'0 0.0
2018-Jan-12 08:59N 39°34' E 002°38'0 0.0
2018-Jan-12 08:29N 39°34' E 002°38'0 0.0
2018-Jan-12 07:59N 39°34' E 002°38'0 0.0
2018-Jan-12 07:29N 39°34' E 002°38'0 0.0
2018-Jan-12 06:59N 39°34' E 002°38'0 0.0
2018-Jan-12 06:29N 39°34' E 002°38'1 3.1
2018-Jan-12 06:00N 39°32' E 002°38'612.6
2018-Jan-12 05:30N 39°27' E 002°33'611.9
2018-Jan-12 05:01N 39°25' E 002°26'3 0.1
2018-Jan-10 20:17N 39°25' E 002°23'412.3
2018-Jan-10 20:00N 39°25' E 002°27'612.1
2018-Jan-10 19:30N 39°26' E 002°35'612.3
2018-Jan-10 19:00N 39°32' E 002°38'1 2.8
2018-Jan-10 18:30N 39°34' E 002°38'0 0.0
2018-Jan-10 18:00N 39°34' E 002°38'0 0.0
2018-Jan-10 17:30N 39°34' E 002°38'0 0.0
2018-Jan-10 17:00N 39°34' E 002°38'0 0.0
2018-Jan-10 16:30N 39°34' E 002°38'0 0.0
2018-Jan-10 16:00N 39°34' E 002°38'0 0.0
2018-Jan-10 15:27N 39°34' E 002°38'0 0.0
2018-Jan-10 15:00N 39°34' E 002°38'0 0.0
2018-Jan-10 14:30N 39°34' E 002°38'0 0.0
2018-Jan-10 14:00N 39°34' E 002°38'0 0.0
2018-Jan-10 13:30N 39°34' E 002°38'0 0.0
2018-Jan-10 13:00N 39°34' E 002°38'0 0.0
2018-Jan-10 12:30N 39°34' E 002°38'0 0.0
2018-Jan-10 12:00N 39°34' E 002°38'0 0.0
2018-Jan-10 11:30N 39°34' E 002°38'0 0.0
2018-Jan-10 11:00N 39°34' E 002°38'0 0.0
2018-Jan-10 10:30N 39°34' E 002°38'0 0.0
2018-Jan-10 09:57N 39°34' E 002°38'0 0.0
2018-Jan-10 09:30N 39°34' E 002°38'0 0.0
2018-Jan-10 09:00N 39°34' E 002°38'0 0.0
2018-Jan-10 08:30N 39°34' E 002°38'0 0.0
2018-Jan-10 08:00N 39°34' E 002°38'0 0.0
2018-Jan-10 07:30N 39°34' E 002°38'0 0.0
2018-Jan-10 07:00N 39°34' E 002°38'0 0.0
2018-Jan-10 06:30N 39°34' E 002°38'1 3.0
2018-Jan-10 06:00N 39°32' E 002°38'612.0
2018-Jan-10 05:30N 39°27' E 002°34'611.6
2018-Jan-10 05:00N 39°26' E 002°26'62 1.5
2018-Jan-08 12:00N 38°48' E 001°22'5 8.3
2018-Jan-08 11:26N 38°52' E 001°27'3 2.0
2018-Jan-08 09:52N 38°55' E 001°26'1 0.3
2018-Jan-08 06:06N 38°54' E 001°27'2 7.9
2018-Jan-08 05:54N 38°54' E 001°29'4 8.8
2018-Jan-08 05:30N 38°56' E 001°34'5 9.6
2018-Jan-08 05:00N 38°58' E 001°39'41 6.0
2018-Jan-07 22:13N 39°20' E 002°23'2 5.9
2018-Jan-07 21:57N 39°21' E 002°24'3 5.9
2018-Jan-07 21:30N 39°22' E 002°27'3 6.0
2018-Jan-07 21:00N 39°24' E 002°30'3 5.9
2018-Jan-07 20:30N 39°26' E 002°33'3 6.0
2018-Jan-07 20:00N 39°29' E 002°35'3 6.1
2018-Jan-07 19:30N 39°31' E 002°37'3 4.9
2018-Jan-07 18:59N 39°34' E 002°38'0 0.0
2018-Jan-07 18:30N 39°34' E 002°38'0 0.0
2018-Jan-07 17:59N 39°34' E 002°38'0 0.0
2018-Jan-07 17:29N 39°34' E 002°38'0 0.0
2018-Jan-07 17:00N 39°34' E 002°38'0 0.0
2018-Jan-07 16:29N 39°34' E 002°38'0 0.0
2018-Jan-07 16:00N 39°34' E 002°38'0 0.0
2018-Jan-07 15:30N 39°34' E 002°38'0 0.0
2018-Jan-07 14:59N 39°34' E 002°38'0 0.0
2018-Jan-07 14:29N 39°34' E 002°38'0 0.0
2018-Jan-07 13:59N 39°34' E 002°38'0 0.0
2018-Jan-07 13:29N 39°34' E 002°38'0 0.0
2018-Jan-07 13:00N 39°34' E 002°38'0 0.0
2018-Jan-07 12:30N 39°34' E 002°38'0 0.0
2018-Jan-07 12:00N 39°34' E 002°38'0 0.0
2018-Jan-07 11:30N 39°34' E 002°38'0 0.0
2018-Jan-07 10:57N 39°34' E 002°38'0 0.0
2018-Jan-07 10:30N 39°34' E 002°38'0 0.0
2018-Jan-07 09:59N 39°34' E 002°38'0 0.0
2018-Jan-07 09:29N 39°34' E 002°38'0 0.0
2018-Jan-07 08:59N 39°34' E 002°38'0 0.0
2018-Jan-07 08:30N 39°34' E 002°38'0 0.0
2018-Jan-07 08:00N 39°34' E 002°38'0 0.0
2018-Jan-07 07:29N 39°34' E 002°38'0 0.0
2018-Jan-07 07:00N 39°34' E 002°38'0 0.0
2018-Jan-07 06:30N 39°34' E 002°38'1 2.3
2018-Jan-07 06:00N 39°33' E 002°39'1 1.7
2018-Jan-07 05:30N 39°33' E 002°40'0 0.1
2018-Jan-07 05:00N 39°33' E 002°40'0 0.0
2018-Jan-07 04:30N 39°33' E 002°40'0 0.0
2018-Jan-07 04:00N 39°33' E 002°40'0 0.1
2018-Jan-07 03:30N 39°33' E 002°40'0 0.1
2018-Jan-07 03:00N 39°33' E 002°40'0 0.0
2018-Jan-07 02:30N 39°33' E 002°40'0 0.0
2018-Jan-07 02:00N 39°33' E 002°40'0 0.0
2018-Jan-07 01:27N 39°33' E 002°40'0 0.0
2018-Jan-07 00:30N 39°33' E 002°40'0 0.1
2018-Jan-07 00:00N 39°33' E 002°40'0 0.1
2018-Jan-06 23:30N 39°33' E 002°40'0 0.0
2018-Jan-06 23:00N 39°33' E 002°40'0 0.0
2018-Jan-06 22:30N 39°33' E 002°40'0 0.0
2018-Jan-06 22:00N 39°33' E 002°40'0 0.0
2018-Jan-06 21:30N 39°33' E 002°40'0 0.0
2018-Jan-06 21:00N 39°33' E 002°40'0 0.0
2018-Jan-06 20:30N 39°33' E 002°40'0 0.0
2018-Jan-06 20:00N 39°33' E 002°40'0 0.0
2018-Jan-06 19:30N 39°33' E 002°40'0 0.0
2018-Jan-06 19:00N 39°33' E 002°40'0 0.0
2018-Jan-06 18:30N 39°33' E 002°40'0 0.1
2018-Jan-06 18:00N 39°33' E 002°40'0 0.0
2018-Jan-06 17:30N 39°33' E 002°40'0 0.0
2018-Jan-06 17:00N 39°33' E 002°40'0 0.0
2018-Jan-06 16:30N 39°33' E 002°40'0 0.0
2018-Jan-06 16:00N 39°33' E 002°40'0 0.0
2018-Jan-06 15:30N 39°33' E 002°40'0 0.0
2018-Jan-06 15:00N 39°33' E 002°40'0 0.0
2018-Jan-06 14:30N 39°33' E 002°40'0 0.0
2018-Jan-06 14:00N 39°33' E 002°40'0 0.0
2018-Jan-06 13:30N 39°33' E 002°40'0 0.0
2018-Jan-06 13:00N 39°33' E 002°40'0 0.0
2018-Jan-06 12:30N 39°33' E 002°40'0 0.0
2018-Jan-06 12:00N 39°33' E 002°40'0 0.0
2018-Jan-06 11:30N 39°33' E 002°40'0 0.0
2018-Jan-06 11:00N 39°33' E 002°40'0 0.0
2018-Jan-06 10:30N 39°33' E 002°40'1 2.6
2018-Jan-06 10:00N 39°32' E 002°39'510.4
2018-Jan-06 09:30N 39°28' E 002°35'4 8.0
2018-Jan-06 09:00N 39°25' E 002°31'5 9.1
2018-Jan-06 08:30N 39°26' E 002°25'5 8.9
2018-Jan-06 08:00N 39°26' E 002°19'1 0.0
2018-Jan-04 20:14N 39°25' E 002°20'313.0
2018-Jan-04 20:00N 39°25' E 002°24'612.4
2018-Jan-04 19:30N 39°26' E 002°32'612.9
2018-Jan-04 19:00N 39°31' E 002°37'3 5.0
2018-Jan-04 18:28N 39°34' E 002°38'0 0.0
2018-Jan-04 17:58N 39°34' E 002°38'0 0.0
2018-Jan-04 17:28N 39°34' E 002°38'0 0.0
2018-Jan-04 16:58N 39°34' E 002°38'0 0.0
2018-Jan-04 16:29N 39°34' E 002°38'0 0.0
2018-Jan-04 15:59N 39°34' E 002°38'0 0.0
2018-Jan-04 15:29N 39°34' E 002°38'0 0.0
2018-Jan-04 14:58N 39°34' E 002°38'0 0.0
2018-Jan-04 14:28N 39°34' E 002°38'0 0.0
2018-Jan-04 13:59N 39°34' E 002°38'0 0.0
2018-Jan-04 13:28N 39°34' E 002°38'0 0.0
2018-Jan-04 12:58N 39°34' E 002°38'0 0.0
2018-Jan-04 12:29N 39°34' E 002°38'0 0.0
2018-Jan-04 11:58N 39°34' E 002°38'0 0.0
2018-Jan-04 11:28N 39°34' E 002°38'0 0.0
2018-Jan-04 10:59N 39°34' E 002°38'0 0.0
2018-Jan-04 10:29N 39°34' E 002°38'0 0.0
2018-Jan-04 09:58N 39°34' E 002°38'0 0.0
2018-Jan-04 09:29N 39°34' E 002°38'0 0.0
2018-Jan-04 08:58N 39°34' E 002°38'0 0.0
2018-Jan-04 08:28N 39°34' E 002°38'0 0.0
2018-Jan-04 07:59N 39°34' E 002°38'0 0.0
2018-Jan-04 07:29N 39°34' E 002°38'0 0.0
2018-Jan-04 06:59N 39°34' E 002°38'0 0.0
2018-Jan-04 06:29N 39°34' E 002°38'1 2.7
2018-Jan-04 06:01N 39°32' E 002°38'611.7
2018-Jan-04 05:31N 39°28' E 002°34'610.8
2018-Jan-04 04:59N 39°25' E 002°27'712.3
2018-Jan-04 04:24N 39°25' E 002°18'  

Dump ship's entire track history